Time;durP1;ratioP1;P1;durP2;ratioP2;P2;SDS_P1;SDS_P2;PMS_P1;PMS_P2;Temp;Humidity;BMP_temperature;BMP_pressure;BME280_temperature;BME280_humidity;BME280_pressure;Samples;Min_cycle;Max_cycle;Signal;HPM_P1;HPM_P2
2022/07/10 00:02:07;;;;;;;6.55;3.03;;;;;;;16.01;60.21;102645.78;5076601;27;20031;-63
2022/07/10 00:04:33;;;;;;;6.63;2.53;;;;;;;15.99;60.15;102653.06;5113092;27;20035;-63
2022/07/10 00:06:59;;;;;;;8.50;2.90;;;;;;;16.01;60.00;102650.28;5131146;27;20027;-63
2022/07/10 00:09:27;;;;;;;4.10;2.38;;;;;;;16.04;59.93;102653.66;5131426;27;20019;-63
2022/07/10 00:11:53;;;;;;;6.45;2.95;;;;;;;16.07;60.23;102655.31;5094820;27;20363;-63
2022/07/10 00:14:20;;;;;;;6.18;2.90;;;;;;;15.95;60.60;102658.69;5080971;28;20042;-63
2022/07/10 00:16:45;;;;;;;5.72;2.65;;;;;;;15.89;60.16;102647.34;5112111;27;20026;-63
2022/07/10 00:19:10;;;;;;;7.82;3.10;;;;;;;15.82;60.67;102651.31;5131604;27;20374;-63
2022/07/10 00:21:36;;;;;;;7.10;3.05;;;;;;;15.71;60.89;102653.75;5111892;27;20485;-63
2022/07/10 00:24:04;;;;;;;4.68;2.38;;;;;;;15.72;61.03;102647.44;5111129;28;20398;-63
2022/07/10 00:26:30;;;;;;;6.88;3.00;;;;;;;15.74;60.68;102645.53;5109876;28;20039;-63
2022/07/10 00:28:55;;;;;;;4.65;2.55;;;;;;;15.72;61.29;102642.06;5112456;28;20031;-63
2022/07/10 00:31:21;;;;;;;9.30;2.50;;;;;;;15.59;61.03;102627.59;5130926;27;20034;-63
2022/07/10 00:33:47;;;;;;;7.95;2.90;;;;;;;15.70;60.92;102652.00;5110354;28;20122;-63
2022/07/10 00:36:13;;;;;;;7.40;2.83;;;;;;;15.58;61.54;102647.31;5112261;28;20023;-63
2022/07/10 00:38:39;;;;;;;4.95;2.80;;;;;;;15.48;61.63;102644.28;5131829;27;20501;-63
2022/07/10 00:41:05;;;;;;;8.80;3.25;;;;;;;15.43;62.06;102641.81;5113427;28;20035;-63
2022/07/10 00:43:30;;;;;;;6.68;2.70;;;;;;;15.47;62.09;102637.19;5131539;28;20019;-63
2022/07/10 00:45:55;;;;;;;6.18;2.70;;;;;;;15.41;62.40;102630.34;5111421;28;20035;-63
2022/07/10 00:48:21;;;;;;;5.57;2.88;;;;;;;15.35;62.20;102629.78;5131560;28;20031;-63
2022/07/10 00:50:47;;;;;;;6.30;2.95;;;;;;;15.17;62.70;102610.22;5085551;28;20040;-63
2022/07/10 00:53:15;;;;;;;4.63;2.58;;;;;;;15.25;62.89;102624.06;5131380;28;20080;-63
2022/07/10 00:55:42;;;;;;;6.67;2.87;;;;;;;15.29;62.46;102620.25;5113332;28;20347;-63
2022/07/10 00:58:11;;;;;;;6.22;3.00;;;;;;;15.25;62.89;102628.56;5130113;28;20050;-63
2022/07/10 01:00:37;;;;;;;4.68;2.70;;;;;;;15.27;62.90;102621.31;5129194;28;20068;-63
2022/07/10 01:03:03;;;;;;;6.95;2.90;;;;;;;15.30;62.84;102626.50;5112022;28;20031;-63
2022/07/10 01:05:29;;;;;;;3.80;2.85;;;;;;;15.25;63.28;102617.84;5129607;28;20023;-63
2022/07/10 01:07:54;;;;;;;5.45;2.83;;;;;;;15.21;63.45;102622.53;5130404;28;20483;-63
2022/07/10 01:10:19;;;;;;;10.88;3.38;;;;;;;15.19;63.74;102613.69;5112142;28;20038;-63
2022/07/10 01:12:46;;;;;;;7.53;3.47;;;;;;;15.27;63.93;102610.59;5130163;27;20381;-63
2022/07/10 01:15:12;;;;;;;5.95;2.97;;;;;;;15.31;63.92;102610.34;5134513;27;20493;-63
2022/07/10 01:17:37;;;;;;;8.35;3.20;;;;;;;15.30;63.86;102605.94;5133852;27;20023;-63
2022/07/10 01:20:07;;;;;;;9.30;3.35;;;;;;;15.34;63.55;102606.63;5133747;27;20045;-63
2022/07/10 01:22:33;;;;;;;8.60;3.40;;;;;;;15.20;63.84;102599.31;5133569;27;20027;-63
2022/07/10 01:24:58;;;;;;;7.53;3.22;;;;;;;15.26;63.73;102585.59;5134178;27;20375;-64
2022/07/10 01:27:24;;;;;;;7.57;2.97;;;;;;;15.33;63.70;102596.84;5132780;27;20106;-63
2022/07/10 01:29:54;;;;;;;4.97;2.72;;;;;;;15.27;64.04;102592.69;5134506;27;20036;-63
2022/07/10 01:32:19;;;;;;;5.05;3.10;;;;;;;15.28;64.08;102585.50;5133866;27;20555;-63
2022/07/10 01:34:46;;;;;;;6.35;2.72;;;;;;;15.17;64.32;102588.75;5132747;27;20058;-63
2022/07/10 01:37:12;;;;;;;5.68;3.20;;;;;;;15.14;64.29;102587.13;5113303;27;20469;-63
2022/07/10 01:39:40;;;;;;;6.35;2.70;;;;;;;15.05;64.68;102586.75;5132931;27;20027;-63
2022/07/10 01:42:06;;;;;;;8.30;3.10;;;;;;;15.09;64.66;102583.84;5115101;27;20038;-63
2022/07/10 01:44:31;;;;;;;7.78;3.03;;;;;;;15.07;64.37;102583.06;5132410;27;20031;-63
2022/07/10 01:46:57;;;;;;;6.20;2.90;;;;;;;15.07;64.49;102588.41;5097928;27;20035;-63
2022/07/10 01:49:23;;;;;;;8.88;3.10;;;;;;;15.04;64.73;102579.69;5116217;27;20051;-63
2022/07/10 01:51:48;;;;;;;7.13;2.80;;;;;;;14.83;65.23;102587.91;5133688;27;20092;-63
2022/07/10 01:54:13;;;;;;;6.05;3.00;;;;;;;14.91;65.22;102587.50;5098895;27;20027;-63
2022/07/10 01:56:39;;;;;;;5.68;2.75;;;;;;;14.82;65.31;102583.50;5114755;27;20114;-63
2022/07/10 01:59:05;;;;;;;9.07;2.90;;;;;;;14.83;65.28;102585.25;5114572;27;20122;-63
2022/07/10 02:01:31;;;;;;;4.35;2.97;;;;;;;14.64;65.49;102579.97;5115716;27;20105;-63
2022/07/10 02:06:42;;;;;;;5.25;2.67;;;;;;;14.75;65.61;102582.09;5118260;27;20095;-63
2022/07/10 02:09:08;;;;;;;7.57;3.45;;;;;;;14.58;66.24;102585.66;5114770;27;20079;-63
2022/07/10 02:11:34;;;;;;;6.75;2.97;;;;;;;14.51;66.63;102581.53;5112797;27;20027;-63
2022/07/10 02:14:00;;;;;;;6.43;3.10;;;;;;;14.53;66.33;102583.22;5114180;27;20547;-63
2022/07/10 02:16:25;;;;;;;6.55;2.78;;;;;;;14.61;66.67;102581.94;5115360;27;20064;-63
2022/07/10 02:18:51;;;;;;;10.90;3.05;;;;;;;14.56;66.37;102584.88;5083048;27;20118;-63
2022/07/10 02:21:17;;;;;;;7.93;3.05;;;;;;;14.51;66.40;102579.75;5111940;27;20360;-62
2022/07/10 02:23:42;;;;;;;5.90;2.88;;;;;;;14.44;66.51;102590.81;5114364;27;20381;-63
2022/07/10 02:26:08;;;;;;;8.70;3.13;;;;;;;14.45;66.54;102585.41;5130349;27;20027;-63
2022/07/10 02:28:34;;;;;;;4.80;3.10;;;;;;;14.40;66.90;102584.75;5114883;27;20482;-63
2022/07/10 02:31:00;;;;;;;7.20;2.97;;;;;;;14.43;66.89;102589.09;5131968;27;20390;-63
2022/07/10 02:33:26;;;;;;;5.68;3.05;;;;;;;14.38;66.84;102583.09;5114587;27;20023;-63
2022/07/10 02:35:51;;;;;;;5.88;3.45;;;;;;;14.30;66.71;102575.47;5114704;27;20027;-63
2022/07/10 02:38:16;;;;;;;7.82;2.92;;;;;;;14.31;67.09;102580.75;5114151;27;20045;-63
2022/07/10 02:40:42;;;;;;;5.57;3.00;;;;;;;14.30;67.26;102581.69;5132224;27;20019;-63
2022/07/10 02:43:10;;;;;;;5.95;3.45;;;;;;;14.33;67.47;102588.72;5114904;27;20047;-63
2022/07/10 02:45:36;;;;;;;8.02;3.30;;;;;;;14.27;67.51;102581.84;5115641;27;20020;-64
2022/07/10 02:48:01;;;;;;;6.03;2.75;;;;;;;14.25;67.50;102580.19;5132147;27;20501;-63
2022/07/10 02:50:26;;;;;;;9.35;2.95;;;;;;;14.20;67.71;102580.41;5133723;27;20043;-63
2022/07/10 02:52:52;;;;;;;5.60;2.92;;;;;;;14.23;67.67;102574.03;5114003;27;20114;-63
2022/07/10 02:55:18;;;;;;;9.57;3.53;;;;;;;14.21;67.81;102574.13;5115293;27;20031;-63
2022/07/10 02:57:43;;;;;;;6.55;3.10;;;;;;;14.08;68.41;102570.34;5131600;27;20076;-63
2022/07/10 03:00:09;;;;;;;5.63;3.35;;;;;;;14.18;68.51;102581.47;5132693;27;20047;-63
2022/07/10 03:02:36;;;;;;;6.72;3.40;;;;;;;14.14;68.64;102578.06;5132271;27;20027;-63
2022/07/10 03:05:04;;;;;;;7.93;2.90;;;;;;;14.13;68.46;102573.66;5132659;27;20549;-63
2022/07/10 03:07:32;;;;;;;7.10;3.17;;;;;;;14.19;68.51;102575.16;5132400;27;20153;-63
2022/07/10 03:09:57;;;;;;;5.97;2.80;;;;;;;14.22;68.44;102578.53;5113133;27;20067;-63
2022/07/10 03:12:24;;;;;;;7.05;3.35;;;;;;;14.08;69.02;102576.53;5081259;27;20098;-63
2022/07/10 03:14:50;;;;;;;5.60;3.08;;;;;;;14.14;68.83;102570.03;5097397;27;20126;-63
2022/07/10 03:17:18;;;;;;;7.20;3.25;;;;;;;14.12;68.82;102574.59;5131499;27;20492;-63
2022/07/10 03:19:46;;;;;;;6.78;3.28;;;;;;;14.13;68.75;102570.13;5112898;27;20030;-63
2022/07/10 03:22:12;;;;;;;8.02;3.40;;;;;;;14.15;68.61;102570.88;5095942;27;20019;-63
2022/07/10 03:24:38;;;;;;;7.45;3.25;;;;;;;14.11;68.73;102574.66;5132425;27;20038;-63
2022/07/10 03:27:06;;;;;;;8.05;3.38;;;;;;;14.13;68.49;102579.00;5096213;27;20023;-63
2022/07/10 03:29:32;;;;;;;8.07;3.20;;;;;;;13.97;68.85;102568.22;5078586;27;20066;-63
2022/07/10 03:31:57;;;;;;;5.80;3.30;;;;;;;13.94;68.82;102560.34;5131780;27;20432;-63
2022/07/10 03:34:23;;;;;;;5.75;2.97;;;;;;;13.93;68.98;102560.41;5130318;27;20027;-63
2022/07/10 03:36:48;;;;;;;5.82;3.13;;;;;;;13.99;68.73;102555.59;5113296;27;20595;-63
2022/07/10 03:39:15;;;;;;;10.75;3.95;;;;;;;13.94;68.75;102557.66;5114180;27;20023;-62
2022/07/10 03:41:40;;;;;;;5.35;3.42;;;;;;;13.91;68.63;102551.56;5132385;27;20030;-63
2022/07/10 03:44:10;;;;;;;8.52;3.58;;;;;;;13.90;68.82;102558.75;5132225;27;20019;-63
2022/07/10 03:46:36;;;;;;;7.00;3.72;;;;;;;13.80;69.15;102539.63;5131375;27;20035;-63
2022/07/10 03:49:01;;;;;;;7.43;3.97;;;;;;;13.75;69.61;102552.34;5113265;27;20039;-63
2022/07/10 03:51:27;;;;;;;10.35;3.60;;;;;;;13.85;69.23;102542.06;5131723;27;20030;-63
2022/07/10 03:53:53;;;;;;;9.23;4.05;;;;;;;13.84;69.24;102549.22;5097306;27;20080;-63
2022/07/10 03:59:03;;;;;;;5.57;3.30;;;;;;;13.84;69.27;102551.03;5114584;27;20034;-63
2022/07/10 04:01:29;;;;;;;6.60;3.55;;;;;;;13.81;69.54;102549.38;5129309;27;20398;-63
2022/07/10 04:03:54;;;;;;;7.68;3.47;;;;;;;13.73;69.39;102542.66;5129667;27;20019;-63
2022/07/10 04:06:20;;;;;;;7.43;3.75;;;;;;;13.81;69.63;102556.53;5111898;27;20038;-63
2022/07/10 04:08:46;;;;;;;9.98;4.00;;;;;;;13.81;69.94;102553.84;5086035;27;20043;-63
2022/07/10 04:11:11;;;;;;;9.00;3.85;;;;;;;13.81;70.02;102546.69;5113316;27;20019;-63
2022/07/10 04:13:37;;;;;;;4.05;3.28;;;;;;;13.93;70.01;102555.91;5131723;27;20394;-63
2022/07/10 04:16:05;;;;;;;10.20;4.13;;;;;;;13.84;70.48;102551.88;5084019;27;20089;-63
2022/07/10 04:18:31;;;;;;;7.05;3.40;;;;;;;13.90;70.13;102549.84;5130726;27;20034;-63
2022/07/10 04:20:57;;;;;;;5.53;3.40;;;;;;;14.00;70.17;102553.78;5109936;27;20035;-63
2022/07/10 04:23:23;;;;;;;5.72;3.33;;;;;;;13.97;70.31;102564.66;5131420;27;20055;-63
2022/07/10 04:25:49;;;;;;;7.18;3.65;;;;;;;13.99;70.39;102566.31;5096628;27;20171;-63
2022/07/10 04:28:15;;;;;;;7.85;3.72;;;;;;;14.04;70.21;102566.09;5113713;28;20479;-63
2022/07/10 04:30:41;;;;;;;6.80;3.95;;;;;;;14.07;69.97;102544.53;5110300;28;20059;-63
2022/07/10 04:33:06;;;;;;;6.10;3.13;;;;;;;14.13;70.15;102551.38;5112800;28;20518;-63
2022/07/10 04:35:32;;;;;;;8.57;3.50;;;;;;;14.09;70.88;102548.88;5081952;28;20038;-63
2022/07/10 04:37:58;;;;;;;9.00;3.88;;;;;;;14.04;70.78;102542.88;5111768;28;20397;-63
2022/07/10 04:40:24;;;;;;;8.90;3.80;;;;;;;14.11;70.49;102554.13;5077799;28;20504;-63
2022/07/10 04:42:49;;;;;;;7.70;3.90;;;;;;;14.21;71.03;102552.72;5112180;28;20031;-63
2022/07/10 04:45:15;;;;;;;5.80;3.38;;;;;;;14.21;70.93;102558.09;5113620;28;20019;-63
2022/07/10 04:47:45;;;;;;;9.00;3.42;;;;;;;14.20;71.10;102547.44;5131053;27;20031;-63
2022/07/10 04:50:13;;;;;;;5.30;4.13;;;;;;;14.24;70.73;102538.31;5134538;27;20518;-63
2022/07/10 04:52:38;;;;;;;8.23;3.80;;;;;;;14.32;70.39;102545.03;5134315;27;20057;-63
2022/07/10 04:55:05;;;;;;;6.88;3.33;;;;;;;14.27;70.74;102547.06;5115949;27;20481;-63
2022/07/10 04:57:30;;;;;;;13.60;4.13;;;;;;;14.31;70.09;102555.78;5116718;27;20100;-63
2022/07/10 04:59:56;;;;;;;7.05;3.70;;;;;;;14.30;70.60;102559.44;5116571;27;20401;-63
2022/07/10 05:02:22;;;;;;;5.63;3.55;;;;;;;14.32;70.23;102549.47;5132522;27;20075;-63
2022/07/10 05:04:49;;;;;;;7.13;3.60;;;;;;;14.39;70.34;102561.63;5134633;27;20031;-63
2022/07/10 05:07:15;;;;;;;7.95;3.78;;;;;;;14.31;70.05;102545.94;5098942;27;20027;-63
2022/07/10 05:09:43;;;;;;;5.85;3.90;;;;;;;14.43;70.17;102543.59;5135633;27;20031;-63
2022/07/10 05:12:09;;;;;;;6.00;3.70;;;;;;;14.50;69.90;102551.22;5115986;27;20019;-63
2022/07/10 05:14:35;;;;;;;5.53;3.88;;;;;;;14.51;70.00;102550.31;5116834;27;20043;-63
2022/07/10 05:17:00;;;;;;;5.00;3.40;;;;;;;14.49;70.66;102554.81;5134269;27;20129;-63
2022/07/10 05:19:25;;;;;;;8.02;4.53;;;;;;;14.58;70.58;102556.19;5135389;27;20042;-63
2022/07/10 05:21:52;;;;;;;10.98;4.30;;;;;;;14.53;71.00;102559.13;5114946;27;20510;-63
2022/07/10 05:24:17;;;;;;;8.35;4.15;;;;;;;14.53;70.86;102543.06;5135049;27;20493;-63
2022/07/10 05:26:43;;;;;;;6.03;3.47;;;;;;;14.74;71.00;102559.81;5133832;27;20030;-63
2022/07/10 05:29:08;;;;;;;8.65;3.80;;;;;;;14.75;70.68;102550.81;5134351;27;20783;-63
2022/07/10 05:31:34;;;;;;;6.95;3.33;;;;;;;14.85;71.23;102558.34;5115986;27;20023;-63
2022/07/10 05:33:59;;;;;;;9.18;3.85;;;;;;;14.97;70.75;102541.59;5115088;27;20501;-63
2022/07/10 05:36:26;;;;;;;7.50;3.42;;;;;;;15.17;70.65;102552.09;5115974;27;20031;-63
2022/07/10 05:38:51;;;;;;;9.20;3.08;;;;;;;15.32;70.14;102555.75;5133987;27;20015;-63
2022/07/10 05:41:17;;;;;;;5.80;3.38;;;;;;;15.39;70.42;102559.84;5115881;27;20046;-63
2022/07/10 05:43:42;;;;;;;6.97;3.33;;;;;;;15.39;70.46;102558.97;5115787;27;20490;-63
2022/07/10 05:46:08;;;;;;;7.72;3.47;;;;;;;15.51;70.22;102560.97;5112999;27;20050;-63
2022/07/10 05:48:33;;;;;;;10.75;3.15;;;;;;;15.57;69.90;102565.97;5115710;27;20054;-63
2022/07/10 05:50:59;;;;;;;5.38;2.90;;;;;;;15.62;69.79;102565.72;5130502;27;20100;-63
2022/07/10 05:53:24;;;;;;;6.53;3.13;;;;;;;15.81;69.84;102553.00;5131446;28;20035;-63
2022/07/10 05:55:50;;;;;;;8.77;3.08;;;;;;;15.88;69.14;102557.06;5131114;28;20486;-63
2022/07/10 05:58:16;;;;;;;8.45;2.75;;;;;;;15.93;69.18;102556.78;5131315;28;20031;-63
2022/07/10 06:00:43;;;;;;;5.15;2.50;;;;;;;16.00;69.23;102563.56;5132849;28;20036;-63
2022/07/10 06:03:11;;;;;;;8.18;2.60;;;;;;;16.08;69.23;102555.88;5132912;28;20502;-63
2022/07/10 06:05:37;;;;;;;6.88;2.72;;;;;;;16.27;68.44;102568.25;5114625;28;20132;-63
2022/07/10 06:08:03;;;;;;;5.60;2.28;;;;;;;16.39;68.45;102555.91;5114483;28;20478;-63
2022/07/10 06:10:29;;;;;;;5.85;2.42;;;;;;;16.47;67.52;102554.47;5131019;28;20063;-63
2022/07/10 06:12:54;;;;;;;7.72;2.55;;;;;;;16.58;66.67;102554.66;5068081;28;20122;-63
2022/07/10 06:15:22;;;;;;;6.53;2.22;;;;;;;16.63;67.22;102550.84;5130883;28;20103;-63
2022/07/10 06:17:48;;;;;;;10.43;2.90;;;;;;;16.71;66.59;102553.94;5132588;28;20034;-63
2022/07/10 06:20:14;;;;;;;8.40;2.88;;;;;;;16.71;65.99;102562.84;5113485;28;20038;-63
2022/07/10 06:22:40;;;;;;;5.82;2.58;;;;;;;16.77;65.87;102558.97;5130726;28;20066;-63
2022/07/10 06:25:07;;;;;;;7.72;2.75;;;;;;;16.82;66.02;102550.59;5114472;28;20027;-63
2022/07/10 06:27:33;;;;;;;7.18;2.33;;;;;;;16.90;65.73;102559.91;5132964;28;20382;-63
2022/07/10 06:30:00;;;;;;;7.10;2.45;;;;;;;17.03;65.62;102563.56;5131912;28;20037;-63
2022/07/10 06:32:25;;;;;;;6.10;2.22;;;;;;;17.25;64.92;102568.44;5113572;28;20381;-63
2022/07/10 06:34:52;;;;;;;8.23;2.33;;;;;;;17.37;63.61;102564.09;5113828;28;20030;-63
2022/07/10 06:37:18;;;;;;;9.27;3.28;;;;;;;17.43;63.15;102555.63;5132161;28;20038;-63
2022/07/10 06:39:45;;;;;;;5.93;2.20;;;;;;;17.45;63.45;102559.09;5131473;28;20030;-63
2022/07/10 06:42:10;;;;;;;8.05;2.10;;;;;;;17.60;63.00;102551.84;5131786;28;20030;-63
2022/07/10 06:44:36;;;;;;;6.28;2.53;;;;;;;17.75;63.33;102547.28;5097176;28;20027;-63
2022/07/10 06:49:48;;;;;;;10.45;2.35;;;;;;;17.78;61.62;102538.19;5075716;27;1154656;-63
2022/07/10 06:52:14;;;;;;;7.40;2.22;;;;;;;17.82;61.80;102548.63;5113640;27;20027;-63
2022/07/10 06:54:40;;;;;;;5.90;2.10;;;;;;;17.92;62.25;102549.75;5131602;27;20122;-63
2022/07/10 06:57:06;;;;;;;9.95;2.53;;;;;;;17.85;61.69;102553.84;5130491;27;20122;-63
2022/07/10 06:59:32;;;;;;;7.20;2.20;;;;;;;17.84;62.09;102556.63;5133027;27;20066;-63
2022/07/10 07:01:57;;;;;;;7.22;2.90;;;;;;;17.90;61.61;102557.06;5097497;27;20034;-63
2022/07/10 07:04:23;;;;;;;9.48;2.70;;;;;;;17.96;62.59;102549.53;5096946;27;20438;-63
2022/07/10 07:06:48;;;;;;;8.35;2.65;;;;;;;18.10;61.71;102553.03;5131925;27;20035;-63
2022/07/10 07:09:16;;;;;;;7.18;2.38;;;;;;;18.22;61.82;102540.56;5093347;27;20072;-63
2022/07/10 07:11:44;;;;;;;6.88;2.22;;;;;;;18.40;61.04;102551.91;5111871;27;20031;-63
2022/07/10 07:14:11;;;;;;;8.87;2.27;;;;;;;18.53;60.33;102544.72;5097779;27;20027;-63
2022/07/10 07:16:44;;;;;;;10.07;2.13;;;;;;;18.72;60.67;102548.81;5129298;27;20058;-63
2022/07/10 07:19:17;;;;;;;7.38;2.38;;;;;;;18.81;59.63;102550.88;5114119;27;20023;-63
2022/07/10 07:24:26;;;;;;;7.10;2.20;;;;;;;18.92;59.03;102560.91;5129000;27;20038;-63
2022/07/10 07:26:52;;;;;;;6.22;2.20;;;;;;;18.65;59.52;102553.78;5112522;27;20446;-63
2022/07/10 07:29:18;;;;;;;7.63;2.22;;;;;;;18.60;59.51;102562.16;5132792;27;20035;-63
2022/07/10 07:31:44;;;;;;;9.85;2.63;;;;;;;18.52;59.25;102567.22;5113920;27;20530;-63
2022/07/10 07:34:09;;;;;;;6.10;2.33;;;;;;;18.40;60.98;102570.75;5114157;27;20038;-63
2022/07/10 07:36:37;;;;;;;14.95;2.88;;;;;;;18.29;61.22;102568.78;5112031;27;20023;-63
2022/07/10 07:39:03;;;;;;;8.45;2.47;;;;;;;18.28;61.64;102559.00;5132155;27;20118;-63
2022/07/10 07:41:31;;;;;;;8.13;2.63;;;;;;;18.26;61.54;102565.44;5112756;27;20499;-63
2022/07/10 07:43:57;;;;;;;9.25;2.60;;;;;;;18.23;61.39;102563.81;5130492;27;20073;-63
2022/07/10 07:46:24;;;;;;;11.07;2.78;;;;;;;18.28;61.89;102567.06;5113091;27;20496;-63
2022/07/10 07:48:49;;;;;;;7.68;2.70;;;;;;;18.18;62.09;102563.31;5093637;27;20114;-63
2022/07/10 07:51:15;;;;;;;14.05;3.20;;;;;;;18.22;62.01;102567.50;5112551;27;20168;-63
2022/07/10 07:53:40;;;;;;;9.07;2.95;;;;;;;18.28;62.78;102566.22;5113595;27;20027;-63
2022/07/10 07:56:06;;;;;;;7.80;2.65;;;;;;;18.41;62.36;102566.22;5113110;27;20038;-63
2022/07/10 07:58:32;;;;;;;6.97;2.90;;;;;;;18.44;61.99;102574.09;5113301;27;20136;-63
2022/07/10 08:00:58;;;;;;;7.40;2.83;;;;;;;18.48;61.54;102568.41;5113182;27;20099;-63
2022/07/10 08:03:23;;;;;;;8.60;3.55;;;;;;;18.49;61.13;102571.97;5096480;27;20031;-63
2022/07/10 08:05:56;;;;;;;13.43;3.53;;;;;;;18.33;61.54;102562.25;5131491;27;20413;-63
2022/07/10 08:08:23;;;;;;;9.55;3.45;;;;;;;18.37;61.83;102576.38;5112650;27;20071;-63
2022/07/10 08:10:48;;;;;;;8.43;3.40;;;;;;;18.36;62.47;102569.25;5131754;27;20023;-63
2022/07/10 08:13:18;;;;;;;8.32;4.28;;;;;;;18.27;61.46;102567.19;5112246;27;20431;-64
2022/07/10 08:15:44;;;;;;;9.65;3.80;;;;;;;18.29;61.59;102563.41;5131356;27;20034;-63
2022/07/10 08:18:10;;;;;;;9.18;3.85;;;;;;;18.27;61.41;102564.50;5111725;27;20067;-64
2022/07/10 08:20:36;;;;;;;12.25;3.97;;;;;;;18.29;61.24;102558.03;5113058;28;20118;-63
2022/07/10 08:23:01;;;;;;;7.05;3.60;;;;;;;18.29;62.45;102558.03;5130577;27;20031;-63
2022/07/10 08:25:29;;;;;;;10.05;3.95;;;;;;;18.27;62.56;102553.72;5131528;27;20034;-63
2022/07/10 08:27:59;;;;;;;8.77;4.03;;;;;;;18.33;61.85;102553.31;5131207;27;20030;-63
2022/07/10 08:30:25;;;;;;;11.45;4.50;;;;;;;18.45;61.50;102549.75;5130838;27;20146;-63
2022/07/10 08:32:51;;;;;;;9.65;3.92;;;;;;;18.69;62.14;102557.09;5131046;27;20447;-63
2022/07/10 08:35:16;;;;;;;10.82;3.40;;;;;;;18.68;60.35;102566.13;5113058;28;20114;-63
2022/07/10 08:37:45;;;;;;;8.10;3.88;;;;;;;18.59;60.90;102554.19;5111939;28;20039;-64
2022/07/10 08:40:14;;;;;;;15.65;4.30;;;;;;;18.57;61.43;102559.69;5126695;27;20027;-63
2022/07/10 08:42:41;;;;;;;11.98;3.70;;;;;;;18.59;62.05;102552.38;5128301;28;20362;-63
2022/07/10 08:45:07;;;;;;;12.75;3.78;;;;;;;18.66;61.91;102560.03;5129854;28;20019;-64
2022/07/10 08:47:38;;;;;;;8.75;3.10;;;;;;;18.75;61.04;102567.50;5129002;28;20178;-63
2022/07/10 08:50:06;;;;;;;6.47;2.42;;;;;;;18.68;60.58;102561.63;5130631;28;20129;-63
2022/07/10 08:52:42;;;;;;;9.48;3.00;;;;;;;18.67;60.37;102562.59;5131135;28;20031;-63
2022/07/10 08:55:08;;;;;;;8.32;2.92;;;;;;;18.65;60.73;102558.28;5129018;28;20075;-63
2022/07/10 08:57:34;;;;;;;10.07;3.22;;;;;;;18.51;60.96;102562.81;5112677;28;20031;-64
2022/07/10 09:00:00;;;;;;;7.78;2.97;;;;;;;18.46;61.34;102562.25;5130657;28;20558;-63
2022/07/10 09:02:25;;;;;;;7.65;2.47;;;;;;;18.47;61.98;102564.00;5096369;28;20031;-64
2022/07/10 09:04:52;;;;;;;7.70;3.15;;;;;;;18.57;62.02;102565.06;5095816;28;20034;-64
2022/07/10 09:07:18;;;;;;;7.25;2.97;;;;;;;18.68;61.31;102563.44;5111508;28;20035;-64
2022/07/10 09:09:55;;;;;;;9.93;3.17;;;;;;;18.75;61.05;102567.50;5095357;28;20091;-64
2022/07/10 09:12:22;;;;;;;10.23;3.60;;;;;;;18.72;61.65;102563.13;5111153;28;20561;-63
2022/07/10 09:14:48;;;;;;;6.18;3.13;;;;;;;18.74;60.88;102563.06;5130692;28;20038;-63
2022/07/10 09:17:13;;;;;;;9.00;3.08;;;;;;;18.76;61.30;102551.19;5123132;28;20110;-63
2022/07/10 09:19:43;;;;;;;8.90;3.53;;;;;;;18.77;61.34;102552.06;5112099;28;20035;-63
2022/07/10 09:22:11;;;;;;;7.97;3.10;;;;;;;18.71;61.15;102545.25;5129237;28;20437;-63
2022/07/10 09:24:42;;;;;;;7.47;3.13;;;;;;;18.81;61.55;102549.03;5111945;28;20026;-63
2022/07/10 09:27:08;;;;;;;5.13;2.72;;;;;;;18.79;61.51;102547.41;5127555;28;20027;-63
2022/07/10 09:29:56;;;;;;;8.82;2.90;;;;;;;18.86;60.72;102551.41;5130546;28;20019;-63
2022/07/10 09:32:22;;;;;;;9.18;2.70;;;;;;;18.82;61.45;102542.69;5128507;28;20075;-63
2022/07/10 09:34:49;;;;;;;11.13;3.33;;;;;;;18.84;60.99;102534.47;5132448;27;20031;-64
2022/07/10 09:37:22;;;;;;;9.65;3.20;;;;;;;18.78;62.04;102527.69;5133849;27;20027;-64
2022/07/10 09:40:03;;;;;;;7.95;3.00;;;;;;;18.82;62.57;102529.22;5134762;27;20102;-63
2022/07/10 09:42:41;;;;;;;7.60;2.70;;;;;;;18.86;62.15;102535.25;5114422;27;20087;-64
2022/07/10 09:45:12;;;;;;;6.20;2.35;;;;;;;18.97;61.86;102532.66;5114500;27;20110;-64
2022/07/10 09:47:56;;;;;;;8.43;3.00;;;;;;;19.11;61.59;102541.56;5088622;28;20518;-63
2022/07/10 09:50:33;;;;;;;9.63;2.90;;;;;;;19.12;61.75;102535.19;5070763;28;20563;-63
2022/07/10 09:53:00;;;;;;;7.68;3.00;;;;;;;18.97;60.79;102523.66;5084017;28;20526;-64
2022/07/10 09:55:31;;;;;;;6.50;2.58;;;;;;;18.99;61.04;102530.69;5086594;28;20555;-63
2022/07/10 09:58:00;;;;;;;6.10;2.95;;;;;;;18.98;60.86;102528.13;5091201;28;20514;-63
2022/07/10 10:00:37;;;;;;;9.05;3.00;;;;;;;19.04;60.74;102524.97;5075250;28;20471;-63
2022/07/10 10:03:05;;;;;;;5.75;3.15;;;;;;;19.24;60.38;102532.47;5091324;28;20511;-64
2022/07/10 10:05:55;;;;;;;6.00;2.55;;;;;;;19.51;60.33;102531.41;5091171;28;20403;-63
2022/07/10 10:08:44;;;;;;;6.25;2.67;;;;;;;19.50;59.32;102541.34;5090574;28;20044;-63
2022/07/10 10:11:13;;;;;;;7.85;3.00;;;;;;;19.35;58.50;102534.38;5091217;28;20115;-64
2022/07/10 10:13:39;;;;;;;4.75;2.63;;;;;;;19.27;59.54;102531.41;5091317;28;20050;-63
2022/07/10 10:16:09;;;;;;;8.07;2.55;;;;;;;19.28;60.16;102535.81;5090996;28;20394;-64
2022/07/10 10:18:36;;;;;;;4.32;2.50;;;;;;;19.58;61.06;102524.56;5100372;28;20035;-64
2022/07/10 10:21:06;;;;;;;7.88;2.55;;;;;;;19.88;59.04;102526.88;5113141;27;20022;-63
2022/07/10 10:23:34;;;;;;;4.85;2.67;;;;;;;20.17;57.36;102521.91;5113282;28;20057;-64
2022/07/10 10:25:59;;;;;;;9.93;2.88;;;;;;;20.33;56.29;102526.16;5112775;28;20031;-64
2022/07/10 10:28:25;;;;;;;6.68;2.60;;;;;;;20.36;56.51;102518.66;5113484;28;20509;-64
2022/07/10 10:30:53;;;;;;;5.97;2.40;;;;;;;20.18;57.37;102529.06;5113535;28;20446;-63
2022/07/10 10:33:42;;;;;;;4.85;2.58;;;;;;;20.12;57.86;102521.44;5113027;28;20033;-64
2022/07/10 10:36:08;;;;;;;7.35;3.10;;;;;;;20.05;57.86;102517.44;5112600;28;20081;-64
2022/07/10 10:38:49;;;;;;;7.15;3.05;;;;;;;20.15;57.14;102517.63;5113229;28;20117;-64
2022/07/10 10:41:24;;;;;;;3.30;2.95;;;;;;;20.26;57.47;102519.47;5110668;28;20398;-64
2022/07/10 10:44:09;;;;;;;7.03;2.90;;;;;;;20.53;57.25;102508.38;5113286;28;20035;-63
2022/07/10 10:46:35;;;;;;;8.05;3.10;;;;;;;20.82;56.35;102511.47;5111623;28;20031;-63
2022/07/10 10:49:08;;;;;;;5.25;2.42;;;;;;;21.01;56.74;102505.47;5113663;27;20034;-64
2022/07/10 10:51:56;;;;;;;4.05;2.45;;;;;;;21.17;56.30;102507.75;5133163;27;20034;-63
2022/07/10 10:54:21;;;;;;;4.50;2.42;;;;;;;21.03;54.61;102507.06;5133614;27;20020;-64
2022/07/10 10:57:09;;;;;;;5.50;2.20;;;;;;;21.13;55.81;102509.00;5133066;27;20023;-64
2022/07/10 10:59:44;;;;;;;5.30;2.00;;;;;;;21.14;55.41;102508.00;5115206;27;20113;-64
2022/07/10 11:02:25;;;;;;;5.25;2.47;;;;;;;21.24;55.24;102509.00;5133375;27;20269;-63
2022/07/10 11:04:51;;;;;;;6.50;2.50;;;;;;;21.27;54.63;102503.34;5114987;27;20049;-64
2022/07/10 11:07:51;;;;;;;4.88;2.38;;;;;;;21.27;55.20;102504.19;5132613;27;20038;-63
2022/07/10 11:10:39;;;;;;;4.80;1.80;;;;;;;21.08;55.28;102504.81;5133125;27;20023;-64
2022/07/10 11:13:17;;;;;;;6.00;2.33;;;;;;;20.90;55.24;102508.16;5133116;27;20027;-64
2022/07/10 11:15:45;;;;;;;3.88;1.73;;;;;;;20.89;55.29;102499.19;5132946;27;20119;-63
2022/07/10 11:18:18;;;;;;;5.63;1.90;;;;;;;20.90;55.33;102489.22;5132020;27;20068;-63
2022/07/10 11:20:53;;;;;;;4.60;1.83;;;;;;;21.01;56.08;102490.06;5133217;27;20030;-63
2022/07/10 11:23:24;;;;;;;5.80;2.03;;;;;;;21.06;55.63;102493.28;5132530;27;20053;-63
2022/07/10 11:26:11;;;;;;;6.53;2.05;;;;;;;21.08;55.29;102485.88;5132462;27;20033;-63
2022/07/10 11:28:52;;;;;;;4.47;1.95;;;;;;;21.24;55.03;102490.91;5114189;27;20034;-63
2022/07/10 11:31:22;;;;;;;4.25;2.00;;;;;;;21.39;54.65;102488.81;5132617;27;20042;-64
2022/07/10 11:33:51;;;;;;;3.45;1.83;;;;;;;21.47;55.10;102480.91;5114661;27;20573;-63
2022/07/10 11:36:30;;;;;;;6.43;2.20;;;;;;;21.64;53.88;102481.34;5132005;27;20019;-63
2022/07/10 11:39:04;;;;;;;6.60;2.28;;;;;;;21.57;54.06;102481.00;5113762;27;20080;-63